SBOSBO NHT / EGWU
Speedbird OnlineSpeedbird Online NHT / EGWU

RAF Northolt
04:33 5.8°C

Location Northolt, United Kingdom
Latitude: 51.553001403799996
Longitude: -0.418166995049
Local Time 04:33 on 24 Apr 2024
UTC +1 hours (Europe/London)
METAR EGWU 240250Z AUTO 33005KT 9999 BKN039/// BKN056/// 06/02 Q1019
TAF TAF EGWU 231942Z 2321/2415 35010KT 9999 FEW028 BKN045
Weather As Of 24 Apr 2024 04:33
Description Broken clouds
Wind 9 km/h from North-West (330°)
Cloud Cover 75%
Precipitation Rain: none, Snow: none
Sunrise 05:46
Sunset 20:13
Web Airport Website | Wikipedia
Codes IATA: NHT
ICAO: EGWU
Altitude 38 Meter / 124 Feet
Distance 39 KM / 24 Miles
from London.
Runways
RunwayLength (m)Surface
071690Asphalt
251690Asphalt
Radio
TypeDescriptionFrequency
APPAPP126.45
ATIS125.125
ATISATIS300.35
DEP120.325
DEPDEP129.125
DIR130.35
GRN121.575
OPSOPS132.65
RDRTalk down125.875
TWRTWR120.675
TWR281.175
Live ATC



Support Speedbird Online

© 2017-2024 Speedbird Online